Time;durP1;ratioP1;P1;durP2;ratioP2;P2;SDS_P1;SDS_P2;PMS_P1;PMS_P2;Temp;Humidity;BMP_temperature;BMP_pressure;BME280_temperature;BME280_humidity;BME280_pressure;Samples;Min_cycle;Max_cycle;Signal;HPM_P1;HPM_P2
2023/05/10 00:01:27;;;;;;;0.30;0.30;;;19.10;68.10;19.20;95831.00;;;;5043781;28;20197;-80
2023/05/10 00:03:54;;;;;;;0.33;0.33;;;19.00;68.30;19.20;95834.00;;;;5059382;28;20263;-79
2023/05/10 00:06:22;;;;;;;0.30;0.30;;;19.00;68.40;19.10;95839.00;;;;5056877;28;21925;-80
2023/05/10 00:08:50;;;;;;;0.30;0.30;;;19.00;68.70;19.10;95839.00;;;;5039530;28;20204;-80
2023/05/10 00:11:18;;;;;;;0.40;0.33;;;18.90;69.10;19.00;95833.00;;;;5064521;28;20197;-80
2023/05/10 00:13:45;;;;;;;0.47;0.47;;;18.90;69.10;19.00;95842.00;;;;5062949;28;20569;-80
2023/05/10 00:16:13;;;;;;;0.50;0.50;;;18.90;69.40;19.00;95840.00;;;;5022450;28;20197;-80
2023/05/10 00:18:41;;;;;;;1.13;0.40;;;18.80;69.50;18.90;95842.00;;;;5068282;28;20200;-80
2023/05/10 00:21:09;;;;;;;0.50;0.50;;;18.80;69.70;18.90;95842.00;;;;5057139;28;20252;-80
2023/05/10 00:23:37;;;;;;;0.40;0.40;;;18.70;70.00;18.90;95841.00;;;;5057007;28;20300;-80
2023/05/10 00:26:07;;;;;;;0.30;0.30;;;18.70;70.40;18.90;95832.00;;;;5076557;28;20193;-80
2023/05/10 00:28:34;;;;;;;1.80;0.50;;;18.70;71.00;18.80;95840.00;;;;5062064;28;20203;-80
2023/05/10 00:31:02;;;;;;;0.53;0.40;;;18.70;71.00;18.80;95835.00;;;;5058574;28;20260;-80
2023/05/10 00:33:29;;;;;;;0.43;0.43;;;18.70;71.30;18.80;95837.00;;;;5061270;28;20306;-80
2023/05/10 00:35:57;;;;;;;0.40;0.40;;;18.60;71.50;18.70;95834.00;;;;5048671;28;20219;-80
2023/05/10 00:38:25;;;;;;;0.50;0.50;;;18.60;71.70;18.70;95841.00;;;;5062196;28;20284;-79
2023/05/10 00:40:52;;;;;;;0.40;0.40;;;18.60;72.00;18.70;95843.00;;;;5067545;28;20191;-80
2023/05/10 00:43:21;;;;;;;0.40;0.40;;;18.50;72.20;18.70;95832.00;;;;5052091;28;20251;-79
2023/05/10 00:45:49;;;;;;;0.40;0.40;;;18.50;72.50;18.60;95841.00;;;;5053103;28;20207;-79
2023/05/10 00:48:17;;;;;;;1.40;0.37;;;18.50;72.50;18.60;95835.00;;;;5054301;28;20595;-80
2023/05/10 00:50:44;;;;;;;0.40;0.40;;;18.50;72.70;18.60;95832.00;;;;5054886;28;20819;-80
2023/05/10 00:53:12;;;;;;;0.30;0.30;;;18.50;73.10;18.60;95831.00;;;;5039243;28;20287;-79
2023/05/10 00:55:39;;;;;;;0.40;0.40;;;18.50;73.50;18.60;95826.00;;;;5042485;28;20284;-80
2023/05/10 00:58:07;;;;;;;0.53;0.53;;;18.40;73.60;18.60;95827.00;;;;5061878;28;20189;-79
2023/05/10 01:00:40;;;;;;;0.40;0.40;;;18.40;73.80;18.60;95833.00;;;;5068026;28;20207;-81
2023/05/10 01:03:07;;;;;;;1.67;0.60;;;18.40;74.30;18.60;95826.00;;;;5042758;28;20219;-80
2023/05/10 01:05:34;;;;;;;0.87;0.67;;;18.40;74.10;18.60;95831.00;;;;5068215;28;20201;-81
2023/05/10 01:08:03;;;;;;;0.40;0.40;;;18.40;74.40;18.60;95820.00;;;;5033566;28;20733;-80
2023/05/10 01:10:31;;;;;;;0.80;0.80;;;18.40;74.70;18.60;95829.00;;;;5034621;28;20229;-80
2023/05/10 01:13:00;;;;;;;0.70;0.70;;;18.40;75.00;18.60;95824.00;;;;5026980;28;20226;-80
2023/05/10 01:15:28;;;;;;;0.57;0.40;;;18.40;75.30;18.60;95820.00;;;;5067517;28;20287;-81
2023/05/10 01:17:57;;;;;;;0.73;0.60;;;18.40;75.70;18.60;95826.00;;;;5070688;28;20200;-80
2023/05/10 01:20:26;;;;;;;1.03;0.70;;;18.40;76.10;18.60;95818.00;;;;5060832;28;20676;-82
2023/05/10 01:23:35;;;;;;;0.57;0.50;;;18.40;76.10;18.60;95817.00;;;;5052402;28;20233;-81
2023/05/10 01:26:40;;;;;;;0.43;0.43;;;18.40;77.70;18.60;95821.00;;;;5044595;28;20315;-81
2023/05/10 01:29:23;;;;;;;0.47;0.43;;;18.40;77.70;18.60;95817.00;;;;5059150;28;20259;-81
2023/05/10 01:32:20;;;;;;;1.20;0.90;;;18.40;77.00;18.60;95814.00;;;;5063203;28;20252;-81
2023/05/10 01:35:00;;;;;;;2.03;0.60;;;18.40;77.80;18.60;95821.00;;;;5060775;28;20244;-81
2023/05/10 01:37:41;;;;;;;0.60;0.60;;;18.40;77.20;18.60;95817.00;;;;5069385;28;20203;-81
2023/05/10 01:40:20;;;;;;;0.87;0.87;;;18.40;77.40;18.60;95824.00;;;;5050783;28;20238;-82
2023/05/10 01:42:54;;;;;;;0.60;0.60;;;18.40;77.30;18.60;95825.00;;;;5059076;28;20307;-81
2023/05/10 01:45:31;;;;;;;1.33;0.70;;;18.40;77.30;18.60;95823.00;;;;5057725;28;20283;-80
2023/05/10 01:48:08;;;;;;;0.50;0.50;;;18.40;77.70;18.60;95810.00;;;;5066592;28;20199;-82
2023/05/10 01:50:38;;;;;;;1.90;0.50;;;18.40;77.70;18.60;95818.00;;;;5060797;28;20211;-81
2023/05/10 01:53:10;;;;;;;0.80;0.57;;;18.40;77.50;18.60;95818.00;;;;5036887;28;20577;-82
2023/05/10 01:55:46;;;;;;;0.60;0.60;;;18.30;77.60;18.60;95819.00;;;;5038135;28;20683;-82
2023/05/10 01:58:24;;;;;;;0.63;0.57;;;18.30;77.80;18.60;95820.00;;;;5036385;28;20199;-81
2023/05/10 02:00:53;;;;;;;1.27;0.57;;;18.30;77.80;18.60;95825.00;;;;5024924;28;20187;-82
2023/05/10 02:03:27;;;;;;;0.60;0.60;;;18.30;77.60;18.50;95819.00;;;;5036540;28;20220;-82
2023/05/10 02:05:57;;;;;;;0.50;0.50;;;18.30;78.00;18.50;95814.00;;;;5054476;28;20196;-81
2023/05/10 02:08:25;;;;;;;0.53;0.53;;;18.30;77.90;18.50;95817.00;;;;5055255;28;20204;-81
2023/05/10 02:10:57;;;;;;;0.50;0.50;;;18.30;78.10;18.50;95821.00;;;;5058656;28;20241;-82
2023/05/10 02:13:27;;;;;;;0.50;0.50;;;18.30;78.20;18.50;95823.00;;;;5049352;28;20654;-82
2023/05/10 02:15:56;;;;;;;0.80;0.63;;;18.30;78.20;18.50;95819.00;;;;5053053;28;20211;-83
2023/05/10 02:18:28;;;;;;;0.70;0.70;;;18.20;78.20;18.40;95820.00;;;;5029828;28;20204;-83
2023/05/10 02:20:57;;;;;;;0.70;0.60;;;18.20;78.40;18.40;95825.00;;;;5042965;28;20201;-81
2023/05/10 02:23:26;;;;;;;0.57;0.57;;;18.20;78.50;18.50;95818.00;;;;5052247;28;20253;-82
2023/05/10 02:25:56;;;;;;;0.50;0.50;;;18.20;78.60;18.50;95817.00;;;;5059443;28;20192;-83
2023/05/10 02:28:27;;;;;;;0.73;0.73;;;18.20;78.70;18.50;95816.00;;;;5065618;28;20296;-82
2023/05/10 02:30:56;;;;;;;0.40;0.40;;;18.20;78.60;18.40;95822.00;;;;5051351;28;20193;-82
2023/05/10 02:33:28;;;;;;;0.73;0.60;;;18.20;78.60;18.40;95816.00;;;;5054497;28;20654;-82
2023/05/10 02:35:57;;;;;;;0.33;0.33;;;18.20;78.80;18.40;95822.00;;;;5055470;28;20200;-82
2023/05/10 02:38:28;;;;;;;0.60;0.50;;;18.20;78.80;18.40;95820.00;;;;5038110;28;20205;-81
2023/05/10 02:40:56;;;;;;;0.37;0.37;;;18.10;78.70;18.40;95822.00;;;;5027698;28;20201;-81
2023/05/10 02:43:25;;;;;;;0.30;0.30;;;18.10;78.90;18.30;95815.00;;;;5069551;28;20219;-81
2023/05/10 02:45:53;;;;;;;2.60;0.63;;;18.10;79.10;18.30;95823.00;;;;5047612;28;20197;-81
2023/05/10 02:48:20;;;;;;;0.30;0.30;;;18.10;79.10;18.30;95819.00;;;;5064264;28;20194;-81
2023/05/10 02:50:53;;;;;;;0.40;0.40;;;18.10;79.10;18.30;95816.00;;;;5045596;28;20274;-83
2023/05/10 02:53:27;;;;;;;0.40;0.30;;;18.10;79.10;18.30;95819.00;;;;5066298;28;20292;-82
2023/05/10 02:56:03;;;;;;;0.40;0.40;;;18.10;79.20;18.30;95822.00;;;;5053501;28;20280;-81
2023/05/10 02:58:31;;;;;;;0.37;0.37;;;18.10;79.40;18.30;95818.00;;;;5065122;28;20634;-83
2023/05/10 03:00:58;;;;;;;0.23;0.23;;;18.10;79.30;18.30;95824.00;;;;5016755;28;20192;-81
2023/05/10 03:03:26;;;;;;;0.37;0.37;;;18.10;79.40;18.30;95821.00;;;;5052909;28;20307;-81
2023/05/10 03:05:56;;;;;;;0.30;0.30;;;18.10;79.60;18.30;95820.00;;;;5075527;28;20271;-81
2023/05/10 03:08:24;;;;;;;0.20;0.20;;;18.10;79.70;18.30;95829.00;;;;5064978;28;20679;-82
2023/05/10 03:11:10;;;;;;;0.20;0.20;;;18.10;79.50;18.30;95830.00;;;;5045066;28;20192;-82
2023/05/10 03:13:49;;;;;;;0.30;0.30;;;18.10;79.90;18.30;95825.00;;;;5049797;28;20591;-82
2023/05/10 03:16:26;;;;;;;0.33;0.30;;;18.10;79.80;18.30;95828.00;;;;5074376;28;20192;-82
2023/05/10 03:19:05;;;;;;;0.40;0.30;;;18.10;79.80;18.30;95824.00;;;;5070502;28;20555;-80
2023/05/10 03:21:39;;;;;;;0.30;0.30;;;18.10;79.90;18.30;95824.00;;;;5074193;28;20283;-83
2023/05/10 03:24:12;;;;;;;0.30;0.30;;;18.10;79.90;18.30;95830.00;;;;5039942;28;20221;-81
2023/05/10 03:26:44;;;;;;;0.20;0.20;;;18.10;79.90;18.30;95833.00;;;;5046221;28;20204;-81
2023/05/10 03:29:14;;;;;;;0.33;0.30;;;18.00;79.80;18.30;95834.00;;;;5064672;28;20279;-81
2023/05/10 03:31:41;;;;;;;0.20;0.20;;;18.00;80.00;18.30;95833.00;;;;5050133;28;20192;-81
2023/05/10 03:34:09;;;;;;;1.27;0.63;;;18.00;80.10;18.30;95830.00;;;;5047883;28;20323;-82
2023/05/10 03:36:38;;;;;;;0.40;0.27;;;18.00;80.20;18.30;95837.00;;;;5047584;28;20294;-81
2023/05/10 03:39:05;;;;;;;0.20;0.20;;;18.00;80.20;18.30;95830.00;;;;5070843;28;20283;-79
2023/05/10 03:41:32;;;;;;;3.07;0.30;;;18.00;79.90;18.30;95843.00;;;;5082115;28;20282;-81
2023/05/10 03:43:59;;;;;;;0.20;0.20;;;18.00;80.00;18.30;95839.00;;;;5075561;28;20684;-82
2023/05/10 03:46:27;;;;;;;0.83;0.20;;;18.00;80.10;18.30;95844.00;;;;5060935;28;20193;-81
2023/05/10 03:48:54;;;;;;;0.20;0.20;;;18.00;80.30;18.30;95834.00;;;;5040541;28;20196;-81
2023/05/10 03:51:22;;;;;;;0.53;0.40;;;18.00;80.20;18.30;95833.00;;;;5059097;28;20203;-80
2023/05/10 03:53:50;;;;;;;0.30;0.27;;;18.00;80.10;18.20;95841.00;;;;5060047;28;20227;-82
2023/05/10 03:56:17;;;;;;;0.33;0.33;;;18.00;80.10;18.20;95844.00;;;;5079328;28;20204;-81
2023/05/10 03:58:44;;;;;;;0.40;0.40;;;18.00;80.00;18.20;95839.00;;;;5051602;28;20584;-81
2023/05/10 04:01:12;;;;;;;1.10;0.20;;;18.00;79.90;18.20;95847.00;;;;5068480;28;20223;-81
2023/05/10 04:03:39;;;;;;;0.30;0.30;;;18.00;80.00;18.20;95844.00;;;;5035158;28;20220;-81
2023/05/10 04:06:11;;;;;;;0.20;0.20;;;18.00;80.00;18.20;95838.00;;;;5074823;28;20276;-81
2023/05/10 04:08:38;;;;;;;0.40;0.20;;;18.00;80.00;18.20;95846.00;;;;5069665;28;20215;-82
2023/05/10 04:11:13;;;;;;;0.30;0.30;;;18.00;80.00;18.20;95849.00;;;;5060403;28;20196;-82
2023/05/10 04:13:42;;;;;;;0.77;0.20;;;18.00;80.10;18.20;95846.00;;;;5064104;28;20231;-81
2023/05/10 04:16:10;;;;;;;0.20;0.20;;;18.00;80.00;18.20;95845.00;;;;5059258;28;20204;-82
2023/05/10 04:18:37;;;;;;;0.47;0.47;;;17.90;80.00;18.20;95851.00;;;;5049661;28;20206;-82
2023/05/10 04:21:04;;;;;;;0.43;0.23;;;17.90;80.10;18.20;95853.00;;;;5056408;28;20271;-82
2023/05/10 04:23:32;;;;;;;0.23;0.20;;;17.90;79.90;18.20;95849.00;;;;5035433;28;20231;-81
2023/05/10 04:26:03;;;;;;;0.20;0.20;;;17.90;80.00;18.10;95846.00;;;;5060127;28;20211;-81
2023/05/10 04:28:32;;;;;;;0.20;0.20;;;17.90;80.00;18.10;95850.00;;;;5053344;28;20206;-81
2023/05/10 04:31:03;;;;;;;0.20;0.20;;;17.90;80.00;18.10;95849.00;;;;5067541;28;20220;-81
2023/05/10 04:33:31;;;;;;;0.40;0.30;;;17.90;80.20;18.10;95850.00;;;;5066840;28;20217;-81
2023/05/10 04:35:58;;;;;;;0.40;0.20;;;17.90;80.20;18.20;95849.00;;;;5056224;28;20199;-81
2023/05/10 04:38:25;;;;;;;0.30;0.30;;;17.90;80.40;18.20;95852.00;;;;5064752;28;20576;-81
2023/05/10 04:40:52;;;;;;;0.20;0.20;;;17.90;80.40;18.20;95849.00;;;;5019935;28;20281;-82
2023/05/10 04:43:20;;;;;;;0.20;0.20;;;17.90;80.50;18.20;95848.00;;;;5070024;28;20229;-81
2023/05/10 04:45:50;;;;;;;0.20;0.20;;;18.00;80.40;18.20;95854.00;;;;5068222;28;20279;-82
2023/05/10 04:48:17;;;;;;;0.83;0.30;;;18.00;80.40;18.30;95854.00;;;;5067558;28;20621;-82
2023/05/10 04:50:44;;;;;;;0.73;0.30;;;18.00;80.40;18.30;95858.00;;;;5044829;28;20196;-80
2023/05/10 04:53:11;;;;;;;0.17;0.17;;;18.00;80.40;18.30;95863.00;;;;5070003;28;20677;-85
2023/05/10 04:55:39;;;;;;;0.30;0.30;;;18.00;80.40;18.30;95860.00;;;;5045503;28;20200;-83
2023/05/10 04:58:07;;;;;;;0.20;0.20;;;18.00;80.40;18.30;95864.00;;;;5032367;28;20577;-81
2023/05/10 05:00:36;;;;;;;0.20;0.20;;;18.00;80.50;18.30;95862.00;;;;5055150;28;20197;-83
2023/05/10 05:03:05;;;;;;;0.20;0.20;;;18.00;80.50;18.30;95866.00;;;;5053903;28;20262;-84
2023/05/10 05:05:33;;;;;;;0.20;0.20;;;18.00;80.50;18.40;95870.00;;;;5062767;28;20571;-82
2023/05/10 05:08:00;;;;;;;1.03;0.20;;;18.10;80.40;18.40;95871.00;;;;5056139;28;20268;-81
2023/05/10 05:10:27;;;;;;;0.30;0.30;;;18.10;80.40;18.40;95874.00;;;;5039991;28;20204;-82
2023/05/10 05:12:55;;;;;;;0.33;0.33;;;18.10;80.30;18.40;95877.00;;;;5048119;28;20216;-81
2023/05/10 05:15:22;;;;;;;0.27;0.20;;;18.10;80.20;18.40;95880.00;;;;5025630;28;20188;-82
2023/05/10 05:17:50;;;;;;;0.20;0.20;;;18.10;80.10;18.40;95879.00;;;;5066911;28;20216;-83
2023/05/10 05:20:19;;;;;;;0.93;0.10;;;18.10;80.00;18.40;95878.00;;;;5063757;28;20557;-84
2023/05/10 05:25:20;;;;;;;0.10;0.10;;;18.10;79.90;18.30;95896.00;;;;5012454;28;20210;-82
2023/05/10 05:27:48;;;;;;;0.33;0.10;;;18.10;79.80;18.30;95896.00;;;;5004032;28;20198;-81
2023/05/10 05:30:15;;;;;;;0.10;0.00;;;18.10;79.70;18.30;95907.00;;;;5018884;28;20198;-82
2023/05/10 05:32:42;;;;;;;0.83;0.10;;;18.10;79.70;18.30;95907.00;;;;5012307;28;20225;-80
2023/05/10 05:35:09;;;;;;;0.00;0.00;;;18.00;79.40;18.20;95903.00;;;;5021178;28;20312;-81
2023/05/10 05:37:38;;;;;;;0.07;0.07;;;18.00;79.40;18.20;95906.00;;;;5022010;28;20651;-81
2023/05/10 05:40:07;;;;;;;0.17;0.07;;;18.00;79.50;18.20;95913.00;;;;5021870;28;20202;-84
2023/05/10 05:42:34;;;;;;;0.00;0.00;;;18.00;79.40;18.20;95910.00;;;;4993085;28;20204;-83
2023/05/10 05:45:02;;;;;;;0.10;0.10;;;18.00;79.40;18.20;95918.00;;;;4996716;28;20218;-84
2023/05/10 05:47:29;;;;;;;0.10;0.10;;;17.90;79.20;18.20;95926.00;;;;5014435;28;20218;-83
2023/05/10 05:49:56;;;;;;;0.10;0.10;;;17.90;79.40;18.20;95914.00;;;;5016580;28;20289;-84
2023/05/10 05:52:23;;;;;;;0.10;0.10;;;17.90;79.60;18.20;95922.00;;;;5024939;28;20204;-83
2023/05/10 05:54:52;;;;;;;0.10;0.10;;;17.90;79.70;18.20;95922.00;;;;4996703;28;20624;-83
2023/05/10 05:57:19;;;;;;;0.10;0.10;;;17.90;79.70;18.30;95926.00;;;;5013724;28;20573;-83
2023/05/10 05:59:46;;;;;;;0.10;0.10;;;17.90;79.70;18.30;95926.00;;;;4997798;28;20194;-84
2023/05/10 06:02:13;;;;;;;0.20;0.10;;;17.90;79.80;18.30;95939.00;;;;5008608;28;20222;-85
2023/05/10 06:04:40;;;;;;;0.40;0.23;;;17.90;80.20;18.30;95932.00;;;;5014239;28;20224;-83
2023/05/10 06:07:07;;;;;;;0.13;0.13;;;17.90;79.80;18.30;95936.00;;;;5012071;28;20205;-84
2023/05/10 06:09:34;;;;;;;0.10;0.10;;;17.90;79.50;18.20;95945.00;;;;4995501;28;20294;-85
2023/05/10 06:12:03;;;;;;;0.10;0.10;;;17.90;79.10;18.20;95949.00;;;;5009170;28;20208;-84
2023/05/10 06:14:30;;;;;;;0.20;0.20;;;17.90;79.20;18.20;95951.00;;;;5003874;28;20222;-84
2023/05/10 06:16:59;;;;;;;0.20;0.20;;;17.90;79.20;18.20;95939.00;;;;5003999;28;20204;-84
2023/05/10 06:19:27;;;;;;;1.00;0.30;;;17.90;79.10;18.20;95952.00;;;;5011012;28;20289;-84
2023/05/10 06:21:54;;;;;;;1.43;0.23;;;17.90;79.10;18.20;95959.00;;;;5004318;28;20195;-84
2023/05/10 06:24:22;;;;;;;0.20;0.20;;;17.90;79.00;18.20;95964.00;;;;4988702;28;20300;-84
2023/05/10 06:26:49;;;;;;;0.20;0.20;;;17.90;79.00;18.20;95961.00;;;;5009612;28;20205;-85
2023/05/10 06:29:18;;;;;;;0.30;0.30;;;17.90;79.10;18.20;95961.00;;;;5008782;28;20194;-84
2023/05/10 06:31:46;;;;;;;0.20;0.20;;;17.90;79.20;18.30;95973.00;;;;4984426;28;20193;-84
2023/05/10 06:34:13;;;;;;;0.20;0.20;;;18.00;79.30;18.30;95976.00;;;;5010193;28;20575;-84
2023/05/10 06:36:40;;;;;;;0.20;0.20;;;18.00;79.30;18.40;95980.00;;;;5011592;28;20194;-84
2023/05/10 06:39:08;;;;;;;0.17;0.17;;;18.00;79.30;18.40;95984.00;;;;5009791;28;20201;-84
2023/05/10 06:41:35;;;;;;;0.30;0.30;;;18.00;79.30;18.40;95984.00;;;;5011324;28;20286;-84
2023/05/10 06:44:03;;;;;;;0.33;0.30;;;18.00;79.20;18.50;95984.00;;;;5009256;28;20260;-86
2023/05/10 06:46:32;;;;;;;0.30;0.30;;;18.10;79.30;18.50;95981.00;;;;5011661;28;20206;-84
2023/05/10 06:48:59;;;;;;;0.40;0.30;;;18.10;79.10;18.50;95997.00;;;;5011387;28;20198;-84
2023/05/10 06:51:26;;;;;;;0.27;0.27;;;18.10;78.70;18.50;95990.00;;;;5011633;28;20206;-84
2023/05/10 06:53:54;;;;;;;2.57;0.20;;;18.10;78.60;18.50;95995.00;;;;4999739;28;20228;-85
2023/05/10 06:56:21;;;;;;;0.40;0.40;;;18.10;78.60;18.50;95993.00;;;;5012908;28;20281;-84
2023/05/10 06:58:48;;;;;;;0.40;0.30;;;18.10;78.50;18.50;95991.00;;;;5015673;28;20200;-84
2023/05/10 07:01:16;;;;;;;0.40;0.40;;;18.10;78.40;18.50;96000.00;;;;5001173;28;20198;-84
2023/05/10 07:03:44;;;;;;;0.70;0.30;;;18.20;78.60;18.50;96002.00;;;;4996630;28;20229;-85
2023/05/10 07:06:12;;;;;;;0.30;0.30;;;18.20;78.80;18.60;96000.00;;;;5014488;28;20282;-85
2023/05/10 07:08:39;;;;;;;0.40;0.40;;;18.20;78.80;18.60;95999.00;;;;5009196;28;20202;-84
2023/05/10 07:11:08;;;;;;;0.40;0.40;;;18.20;78.80;18.70;95993.00;;;;4992929;28;20205;-85
2023/05/10 07:13:36;;;;;;;0.40;0.40;;;18.30;79.10;18.80;96000.00;;;;5009503;28;20639;-84
2023/05/10 07:16:04;;;;;;;0.40;0.40;;;18.30;79.20;18.90;96001.00;;;;5007485;28;20190;-84
2023/05/10 07:18:31;;;;;;;0.40;0.40;;;18.40;79.20;18.90;96005.00;;;;5026137;28;20205;-84
2023/05/10 07:21:00;;;;;;;0.37;0.37;;;18.40;79.30;19.00;96010.00;;;;5024967;28;20212;-84
2023/05/10 07:23:27;;;;;;;0.30;0.30;;;18.50;79.40;19.10;96008.00;;;;5021244;28;20274;-85
2023/05/10 07:25:55;;;;;;;0.50;0.50;;;18.60;79.30;19.20;96011.00;;;;5016401;28;20201;-84
2023/05/10 07:28:24;;;;;;;0.40;0.40;;;18.60;79.20;19.30;96018.00;;;;5017029;28;20202;-85
2023/05/10 07:30:52;;;;;;;0.60;0.60;;;18.70;79.00;19.40;96023.00;;;;4990650;28;20209;-85
2023/05/10 07:33:19;;;;;;;0.60;0.60;;;18.80;78.70;19.40;96032.00;;;;5015353;28;20222;-85
2023/05/10 07:35:47;;;;;;;0.50;0.50;;;18.80;78.30;19.50;96028.00;;;;4988691;28;20224;-85
2023/05/10 07:38:17;;;;;;;0.60;0.60;;;18.90;77.90;19.50;96023.00;;;;5025399;28;20224;-85
2023/05/10 07:40:44;;;;;;;0.63;0.63;;;18.90;77.80;19.60;96028.00;;;;5022050;28;20727;-85
2023/05/10 07:43:11;;;;;;;1.07;0.50;;;19.00;78.10;19.70;96023.00;;;;4997945;28;20703;-85
2023/05/10 07:45:38;;;;;;;0.50;0.50;;;19.10;78.10;19.80;96023.00;;;;5031011;28;20221;-84
2023/05/10 07:48:06;;;;;;;0.50;0.50;;;19.10;77.80;19.80;96033.00;;;;5022276;28;20197;-85
2023/05/10 07:50:33;;;;;;;0.77;0.50;;;19.20;77.50;19.90;96027.00;;;;5031682;28;20205;-84
2023/05/10 07:53:00;;;;;;;0.40;0.40;;;19.30;77.20;19.90;96031.00;;;;5026891;28;20218;-85
2023/05/10 07:55:29;;;;;;;0.50;0.50;;;19.30;77.00;20.00;96038.00;;;;5028099;28;20308;-85
2023/05/10 07:57:57;;;;;;;1.37;0.60;;;19.40;77.40;20.10;96030.00;;;;5030087;28;20705;-85
2023/05/10 08:00:24;;;;;;;0.50;0.50;;;19.40;77.20;20.20;96040.00;;;;5032822;28;20345;-85
2023/05/10 08:02:51;;;;;;;0.47;0.47;;;19.50;76.90;20.20;96032.00;;;;5032804;28;20651;-85
2023/05/10 08:05:18;;;;;;;0.87;0.50;;;19.60;76.70;20.30;96037.00;;;;5033142;28;20198;-86
2023/05/10 08:07:49;;;;;;;0.40;0.40;;;19.60;76.40;20.40;96028.00;;;;4981362;28;20195;-85
2023/05/10 08:10:18;;;;;;;0.57;0.57;;;19.70;75.70;20.40;96036.00;;;;5024719;28;20283;-85
2023/05/10 08:12:46;;;;;;;1.23;0.50;;;19.80;75.70;20.50;96036.00;;;;5017882;28;20201;-86
2023/05/10 08:15:14;;;;;;;0.40;0.40;;;19.90;75.90;20.60;96035.00;;;;5019941;28;20227;-85
2023/05/10 08:17:41;;;;;;;0.60;0.60;;;20.00;76.00;20.60;96028.00;;;;5009774;28;20197;-85
2023/05/10 08:20:36;;;;;;;0.40;0.40;;;20.00;75.50;20.70;96026.00;;;;5025811;28;20209;-85
2023/05/10 08:23:03;;;;;;;0.70;0.70;;;20.10;74.70;20.70;96035.00;;;;5025834;28;20217;-86
2023/05/10 08:25:30;;;;;;;2.87;0.70;;;20.10;74.40;20.70;96032.00;;;;5029530;28;20293;-86
2023/05/10 08:27:59;;;;;;;0.37;0.37;;;20.10;73.80;20.70;96043.00;;;;4986268;28;20218;-83
2023/05/10 08:30:26;;;;;;;0.57;0.40;;;20.20;73.70;20.80;96041.00;;;;5026132;28;20574;-83
2023/05/10 08:32:54;;;;;;;0.50;0.50;;;20.20;74.20;20.90;96043.00;;;;5023151;28;20289;-83
2023/05/10 08:35:21;;;;;;;0.40;0.40;;;20.20;74.30;21.00;96038.00;;;;5023957;28;20232;-83
2023/05/10 08:37:48;;;;;;;0.50;0.50;;;20.40;74.50;21.00;96043.00;;;;5029809;28;20288;-83
2023/05/10 08:40:16;;;;;;;0.60;0.60;;;20.50;73.80;21.00;96044.00;;;;5002996;28;20208;-83
2023/05/10 08:42:54;;;;;;;0.40;0.40;;;20.40;73.00;21.00;96048.00;;;;5012791;28;20277;-83
2023/05/10 08:45:27;;;;;;;0.40;0.40;;;20.50;72.60;21.00;96048.00;;;;5023268;28;20303;-82
2023/05/10 08:47:57;;;;;;;0.47;0.30;;;20.50;72.50;21.00;96050.00;;;;5004340;28;20287;-84
2023/05/10 08:50:26;;;;;;;0.60;0.60;;;20.50;72.50;21.00;96050.00;;;;5015630;28;20288;-83
2023/05/10 08:52:58;;;;;;;0.83;0.40;;;20.50;72.00;21.00;96050.00;;;;5030638;28;20194;-83
2023/05/10 08:55:26;;;;;;;0.70;0.50;;;20.50;72.40;21.10;96051.00;;;;5005073;28;20765;-83
2023/05/10 08:57:53;;;;;;;0.47;0.40;;;20.50;72.60;21.10;96050.00;;;;5024700;28;20276;-83
2023/05/10 09:00:24;;;;;;;0.43;0.40;;;20.60;72.80;21.10;96055.00;;;;5032028;28;20200;-84
2023/05/10 09:02:52;;;;;;;0.40;0.40;;;20.60;72.60;21.10;96055.00;;;;5013298;28;20284;-83
2023/05/10 09:05:20;;;;;;;0.57;0.40;;;20.60;72.30;21.10;96050.00;;;;5028462;28;20283;-84
2023/05/10 09:07:48;;;;;;;0.57;0.47;;;20.60;72.30;21.10;96057.00;;;;5024996;28;20200;-83
2023/05/10 09:10:16;;;;;;;0.90;0.47;;;20.60;72.20;21.00;96066.00;;;;5020518;28;20285;-83
2023/05/10 09:12:45;;;;;;;0.90;0.70;;;20.60;72.10;21.00;96062.00;;;;4995162;28;20203;-83
2023/05/10 09:15:18;;;;;;;0.40;0.40;;;20.60;72.10;21.00;96064.00;;;;5023219;28;20252;-83
2023/05/10 09:17:48;;;;;;;0.57;0.40;;;20.60;72.00;21.00;96066.00;;;;5029877;28;20197;-83
2023/05/10 09:20:17;;;;;;;0.40;0.40;;;20.60;71.90;21.00;96053.00;;;;5032249;28;20684;-83
2023/05/10 09:22:44;;;;;;;0.50;0.50;;;20.50;71.90;21.00;96053.00;;;;5016699;28;20244;-83
2023/05/10 09:25:13;;;;;;;0.30;0.30;;;20.50;72.00;21.00;96064.00;;;;5015925;28;20292;-84
2023/05/10 09:27:49;;;;;;;0.30;0.30;;;20.50;71.70;21.00;96058.00;;;;5032394;28;20206;-84
2023/05/10 09:30:26;;;;;;;0.43;0.43;;;20.50;71.80;20.90;96052.00;;;;5015562;28;20682;-84
2023/05/10 09:32:56;;;;;;;0.73;0.40;;;20.50;71.90;20.90;96055.00;;;;5025932;28;20243;-83
2023/05/10 09:35:26;;;;;;;0.50;0.40;;;20.40;72.30;21.00;96058.00;;;;5031580;28;20300;-83
2023/05/10 09:37:56;;;;;;;0.40;0.40;;;20.30;72.70;21.10;96065.00;;;;5025258;28;20204;-84
2023/05/10 09:40:27;;;;;;;0.20;0.20;;;20.50;73.00;21.10;96066.00;;;;5029971;28;20715;-84
2023/05/10 09:42:56;;;;;;;0.40;0.40;;;20.50;72.80;21.20;96059.00;;;;5025188;28;20225;-84
2023/05/10 09:45:26;;;;;;;2.40;0.50;;;20.60;72.70;21.20;96055.00;;;;5032924;28;20221;-84
2023/05/10 09:47:55;;;;;;;0.40;0.40;;;20.60;72.50;21.30;96062.00;;;;5019678;28;20574;-84
2023/05/10 09:50:23;;;;;;;0.40;0.40;;;20.70;72.10;21.30;96054.00;;;;5013118;28;20200;-84
2023/05/10 09:52:57;;;;;;;0.70;0.27;;;20.70;71.70;21.30;96059.00;;;;5020363;28;20703;-84
2023/05/10 09:55:27;;;;;;;0.40;0.40;;;20.70;71.40;21.30;96069.00;;;;5027554;28;20233;-84
2023/05/10 09:58:02;;;;;;;0.40;0.40;;;20.70;70.80;21.30;96056.00;;;;5023169;28;20202;-83
2023/05/10 10:00:36;;;;;;;2.77;0.50;;;20.70;70.70;21.30;96067.00;;;;4997651;28;20590;-83
2023/05/10 10:03:05;;;;;;;0.73;0.50;;;20.70;71.00;21.30;96060.00;;;;5023097;28;20220;-84
2023/05/10 10:05:34;;;;;;;0.40;0.40;;;20.80;70.50;21.30;96056.00;;;;5029604;28;20205;-84
2023/05/10 10:08:05;;;;;;;0.40;0.40;;;20.70;70.30;21.20;96061.00;;;;5012406;28;20280;-84
2023/05/10 10:10:34;;;;;;;0.73;0.47;;;20.70;70.20;21.10;96061.00;;;;5021750;28;20694;-84
2023/05/10 10:13:04;;;;;;;0.30;0.30;;;20.70;70.10;21.10;96061.00;;;;5033197;28;20265;-83
2023/05/10 10:15:34;;;;;;;1.50;0.30;;;20.70;69.80;21.00;96066.00;;;;5009236;28;20591;-86
2023/05/10 10:18:04;;;;;;;0.40;0.30;;;20.70;70.10;21.10;96067.00;;;;5021691;28;20649;-86
2023/05/10 10:20:31;;;;;;;0.40;0.40;;;20.60;69.80;21.00;96067.00;;;;5028404;28;20203;-87
2023/05/10 10:22:59;;;;;;;1.30;0.53;;;20.60;69.60;21.00;96068.00;;;;5013193;28;20200;-86
2023/05/10 10:25:27;;;;;;;0.20;0.20;;;20.60;69.70;21.00;96073.00;;;;5016922;28;20237;-86
2023/05/10 10:28:23;;;;;;;0.40;0.40;;;20.60;70.00;20.90;96064.00;;;;4991719;28;20643;-87
2023/05/10 10:30:55;;;;;;;0.30;0.30;;;20.50;70.10;21.00;96054.00;;;;5007806;28;20198;-86
2023/05/10 10:34:01;;;;;;;0.67;0.50;;;20.50;70.60;21.00;96063.00;;;;5021311;28;20216;-87
2023/05/10 10:36:30;;;;;;;0.57;0.50;;;20.60;70.00;21.00;96063.00;;;;5016551;28;20232;-87
2023/05/10 10:39:03;;;;;;;0.50;0.50;;;20.60;70.70;21.10;96063.00;;;;5018184;28;20205;-84
2023/05/10 10:41:35;;;;;;;1.90;0.67;;;20.60;70.70;21.10;96059.00;;;;5028849;28;20627;-84
2023/05/10 10:44:34;;;;;;;0.50;0.50;;;20.60;70.70;21.20;96061.00;;;;5019744;28;20657;-84
2023/05/10 10:47:05;;;;;;;1.13;0.60;;;20.70;70.90;21.20;96063.00;;;;5015887;28;20205;-84
2023/05/10 10:49:43;;;;;;;1.03;0.70;;;20.70;70.80;21.30;96049.00;;;;5026414;28;20210;-84
2023/05/10 10:52:26;;;;;;;0.73;0.50;;;20.70;70.70;21.40;96048.00;;;;5020523;28;20282;-85
2023/05/10 10:55:06;;;;;;;0.50;0.50;;;20.70;71.00;21.50;96048.00;;;;5020307;28;20501;-87
2023/05/10 10:57:51;;;;;;;0.60;0.60;;;20.80;71.20;21.60;96050.00;;;;5024519;28;20262;-87
2023/05/10 11:00:40;;;;;;;0.60;0.60;;;20.90;70.90;21.70;96040.00;;;;5027626;28;20204;-87
2023/05/10 11:03:13;;;;;;;0.60;0.53;;;21.00;70.50;21.80;96043.00;;;;5016347;28;20231;-86
2023/05/10 11:05:43;;;;;;;0.50;0.50;;;21.10;70.40;21.90;96041.00;;;;5030372;28;20684;-87
2023/05/10 11:08:15;;;;;;;0.50;0.50;;;21.20;70.20;21.90;96040.00;;;;5017554;28;20286;-86
2023/05/10 11:11:06;;;;;;;0.40;0.40;;;21.20;69.70;21.90;96035.00;;;;5001199;28;20280;-84